Time;durP1;ratioP1;P1;durP2;ratioP2;P2;SDS_P1;SDS_P2;PMS_P1;PMS_P2;Temp;Humidity;BMP_temperature;BMP_pressure;BME280_temperature;BME280_humidity;BME280_pressure;Samples;Min_cycle;Max_cycle;Signal;HPM_P1;HPM_P2
2024/03/18 00:01:55;;;;;;;35.78;5.05;;;9.90;99.90;;;;;;5106968;28;20039;-44
2024/03/18 00:04:21;;;;;;;31.73;4.82;;;9.90;99.90;;;;;;5088918;28;20032;-44
2024/03/18 00:06:47;;;;;;;25.55;4.15;;;9.90;99.90;;;;;;5106605;28;20188;-44
2024/03/18 00:09:13;;;;;;;14.18;3.10;;;9.90;99.90;;;;;;5106714;28;20095;-44
2024/03/18 00:11:39;;;;;;;23.52;4.45;;;9.90;99.90;;;;;;5106868;28;20195;-43
2024/03/18 00:14:04;;;;;;;30.75;4.75;;;9.90;99.90;;;;;;5106808;28;20050;-43
2024/03/18 00:16:30;;;;;;;33.30;5.22;;;9.80;99.90;;;;;;5106626;28;20077;-44
2024/03/18 00:18:56;;;;;;;26.45;4.50;;;9.80;99.90;;;;;;5106706;28;20212;-44
2024/03/18 00:21:21;;;;;;;31.15;5.45;;;9.70;99.90;;;;;;5106136;28;20034;-44
2024/03/18 00:23:47;;;;;;;29.42;5.28;;;9.70;99.90;;;;;;5106162;28;20035;-45
2024/03/18 00:26:13;;;;;;;24.10;3.42;;;9.70;99.90;;;;;;5088101;28;20048;-43
2024/03/18 00:28:38;;;;;;;42.42;6.13;;;9.80;99.90;;;;;;5106343;28;20082;-45
2024/03/18 00:31:04;;;;;;;30.00;6.38;;;9.80;99.90;;;;;;5106538;28;20027;-45
2024/03/18 00:33:30;;;;;;;29.52;5.82;;;9.90;99.90;;;;;;5088634;28;20038;-45
2024/03/18 00:35:57;;;;;;;31.40;5.90;;;9.90;99.90;;;;;;5106469;28;20035;-45
2024/03/18 00:38:22;;;;;;;38.28;5.70;;;9.90;99.90;;;;;;5088831;28;20020;-44
2024/03/18 00:40:56;;;;;;;33.63;5.28;;;9.90;99.90;;;;;;5106389;28;20169;-45
2024/03/18 00:43:22;;;;;;;32.15;5.75;;;9.90;99.90;;;;;;5088303;28;20274;-44
2024/03/18 00:45:49;;;;;;;35.20;5.03;;;9.90;99.90;;;;;;5106321;28;20024;-44
2024/03/18 00:48:15;;;;;;;35.80;6.78;;;9.90;99.90;;;;;;5105909;28;20177;-44
2024/03/18 00:50:41;;;;;;;31.42;6.43;;;10.00;99.90;;;;;;5088167;28;20020;-44
2024/03/18 00:53:07;;;;;;;31.27;5.03;;;9.90;99.90;;;;;;5088349;28;20073;-44
2024/03/18 00:55:36;;;;;;;29.98;5.75;;;9.90;99.90;;;;;;5106051;28;20118;-44
2024/03/18 00:58:03;;;;;;;27.80;4.57;;;9.90;99.90;;;;;;5105981;28;20282;-44
2024/03/18 01:00:29;;;;;;;37.78;5.57;;;9.80;99.90;;;;;;5106005;28;20051;-43
2024/03/18 01:02:55;;;;;;;36.78;7.38;;;9.80;99.90;;;;;;5105777;28;20047;-44
2024/03/18 01:05:20;;;;;;;23.88;4.25;;;9.80;99.90;;;;;;5106076;28;20024;-44
2024/03/18 01:07:47;;;;;;;28.08;4.72;;;9.80;99.90;;;;;;5105916;28;20043;-43
2024/03/18 01:10:13;;;;;;;31.73;5.13;;;9.80;99.90;;;;;;5105455;28;20227;-43
2024/03/18 01:12:40;;;;;;;29.00;3.75;;;9.80;99.90;;;;;;5105829;28;20024;-45
2024/03/18 01:15:07;;;;;;;23.02;4.65;;;9.80;99.90;;;;;;5105711;28;20020;-43
2024/03/18 01:17:33;;;;;;;25.10;4.78;;;9.80;99.90;;;;;;5088302;28;20024;-43
2024/03/18 01:19:59;;;;;;;30.45;5.13;;;9.70;99.90;;;;;;5105816;28;20036;-44
2024/03/18 01:22:24;;;;;;;27.65;5.50;;;9.70;99.90;;;;;;5105612;28;20279;-43
2024/03/18 01:24:51;;;;;;;22.65;4.40;;;9.60;99.90;;;;;;5105318;28;20101;-43
2024/03/18 01:27:18;;;;;;;30.40;5.18;;;9.60;99.90;;;;;;5105591;28;20024;-44
2024/03/18 01:29:45;;;;;;;22.50;4.53;;;9.60;99.90;;;;;;5105816;28;20031;-45
2024/03/18 01:32:12;;;;;;;23.20;6.07;;;9.70;99.90;;;;;;5107014;28;20024;-43
2024/03/18 01:34:38;;;;;;;22.10;3.42;;;9.60;99.90;;;;;;5113806;28;20087;-45
2024/03/18 01:37:03;;;;;;;30.38;5.35;;;9.70;99.90;;;;;;5095397;28;20024;-44
2024/03/18 01:39:29;;;;;;;23.80;5.18;;;9.70;99.90;;;;;;5113075;28;20032;-44
2024/03/18 01:41:55;;;;;;;25.45;5.30;;;9.70;99.90;;;;;;5111645;28;20152;-44
2024/03/18 01:44:21;;;;;;;24.63;4.07;;;9.70;99.90;;;;;;5110956;28;20027;-46
2024/03/18 01:46:46;;;;;;;30.35;4.10;;;9.60;99.90;;;;;;5089971;28;20031;-48
2024/03/18 01:49:12;;;;;;;20.50;3.58;;;9.70;99.90;;;;;;5107247;28;20033;-45
2024/03/18 01:51:38;;;;;;;23.70;4.15;;;9.70;99.90;;;;;;5111315;28;20016;-47
2024/03/18 01:54:04;;;;;;;20.20;3.42;;;9.70;99.90;;;;;;5091055;28;20039;-45
2024/03/18 01:56:29;;;;;;;29.08;4.03;;;9.70;99.90;;;;;;5108177;28;20050;-46
2024/03/18 01:58:57;;;;;;;26.13;5.05;;;9.70;99.90;;;;;;5093106;28;20028;-47
2024/03/18 02:01:23;;;;;;;15.95;2.80;;;9.80;99.90;;;;;;5091533;28;20024;-45
2024/03/18 02:03:52;;;;;;;23.48;4.03;;;9.80;99.90;;;;;;5108399;28;20295;-45
2024/03/18 02:06:18;;;;;;;26.60;4.55;;;9.70;99.90;;;;;;5088149;28;20028;-50
2024/03/18 02:08:44;;;;;;;28.70;4.82;;;9.70;99.90;;;;;;5089728;28;20084;-44
2024/03/18 02:11:09;;;;;;;20.55;3.92;;;9.70;99.90;;;;;;5109307;28;20020;-48
2024/03/18 02:13:36;;;;;;;23.77;5.20;;;9.70;99.90;;;;;;5108737;28;20024;-48
2024/03/18 02:16:01;;;;;;;19.33;3.75;;;9.70;99.90;;;;;;5108798;28;20035;-45
2024/03/18 02:18:27;;;;;;;21.42;3.53;;;9.70;99.90;;;;;;5108854;28;20037;-47
2024/03/18 02:20:53;;;;;;;27.80;4.85;;;9.70;99.90;;;;;;5109004;28;20024;-47
2024/03/18 02:23:20;;;;;;;22.65;4.43;;;9.70;99.90;;;;;;5109017;28;20277;-49
2024/03/18 02:25:46;;;;;;;24.70;4.50;;;9.80;99.90;;;;;;5108587;28;20043;-46
2024/03/18 02:28:11;;;;;;;20.92;4.20;;;9.80;99.90;;;;;;5108686;28;20024;-43
2024/03/18 02:30:37;;;;;;;20.50;4.25;;;9.80;99.90;;;;;;5108943;28;20028;-46
2024/03/18 02:33:03;;;;;;;21.63;4.47;;;9.80;99.90;;;;;;5108715;28;20040;-45
2024/03/18 02:35:29;;;;;;;27.02;4.55;;;9.80;99.90;;;;;;5108706;28;20083;-49
2024/03/18 02:37:54;;;;;;;28.63;5.20;;;9.80;99.90;;;;;;5108716;28;20285;-45
2024/03/18 02:40:20;;;;;;;26.33;4.10;;;9.90;99.90;;;;;;5090611;28;20092;-43
2024/03/18 02:42:45;;;;;;;22.35;4.25;;;9.90;99.90;;;;;;5108488;28;20189;-43
2024/03/18 02:45:12;;;;;;;31.90;4.32;;;9.90;99.90;;;;;;5108260;28;20046;-50
2024/03/18 02:47:38;;;;;;;25.30;4.78;;;9.90;99.90;;;;;;5108260;28;20028;-45
2024/03/18 02:50:05;;;;;;;30.83;5.80;;;9.90;99.90;;;;;;5108801;28;20024;-46
2024/03/18 02:52:31;;;;;;;21.88;4.00;;;9.80;99.90;;;;;;5108763;28;20095;-43
2024/03/18 02:54:57;;;;;;;21.73;4.18;;;9.80;99.90;;;;;;5095365;28;20048;-46
2024/03/18 02:57:22;;;;;;;21.00;3.65;;;9.80;99.90;;;;;;5109736;28;20028;-46
2024/03/18 02:59:48;;;;;;;20.88;3.55;;;9.80;99.90;;;;;;5111910;28;20047;-45
2024/03/18 03:02:14;;;;;;;20.02;3.83;;;9.80;99.90;;;;;;5109533;28;20043;-45
2024/03/18 03:04:39;;;;;;;19.17;3.17;;;9.80;99.90;;;;;;5112603;28;20165;-47
2024/03/18 03:07:05;;;;;;;20.80;4.10;;;9.80;99.90;;;;;;5109427;28;20077;-43
2024/03/18 03:09:31;;;;;;;26.70;4.25;;;9.80;99.90;;;;;;5112090;28;20030;-46
2024/03/18 03:11:56;;;;;;;27.38;4.00;;;9.80;99.90;;;;;;5109822;28;20024;-47
2024/03/18 03:14:22;;;;;;;17.05;3.88;;;9.80;99.90;;;;;;5108112;28;20028;-48
2024/03/18 03:16:48;;;;;;;25.05;4.07;;;9.80;99.90;;;;;;5107839;28;20024;-46
2024/03/18 03:19:13;;;;;;;28.30;4.50;;;9.80;99.90;;;;;;5107546;28;20027;-43
2024/03/18 03:21:39;;;;;;;30.25;4.32;;;9.80;99.90;;;;;;5108096;28;20094;-43
2024/03/18 03:24:05;;;;;;;27.00;4.25;;;9.80;99.90;;;;;;5107933;28;20273;-44
2024/03/18 03:26:31;;;;;;;24.90;4.60;;;9.80;99.90;;;;;;5089713;28;20051;-44
2024/03/18 03:28:57;;;;;;;30.17;3.75;;;9.80;99.90;;;;;;5107732;28;20087;-43
2024/03/18 03:31:22;;;;;;;19.52;3.65;;;9.80;99.90;;;;;;5107775;28;20027;-43
2024/03/18 03:33:48;;;;;;;26.13;3.53;;;9.80;99.90;;;;;;5107827;28;20020;-43
2024/03/18 03:36:14;;;;;;;21.70;3.85;;;9.80;99.90;;;;;;5107511;28;20032;-44
2024/03/18 03:38:39;;;;;;;25.88;4.55;;;9.90;99.90;;;;;;5107411;28;20281;-43
2024/03/18 03:41:05;;;;;;;28.77;4.72;;;9.90;99.90;;;;;;5107365;28;20024;-43
2024/03/18 03:43:31;;;;;;;22.48;3.88;;;9.90;99.90;;;;;;5089598;28;20023;-45
2024/03/18 03:45:59;;;;;;;20.25;3.28;;;9.80;99.90;;;;;;5089337;28;20273;-43
2024/03/18 03:48:25;;;;;;;21.15;3.95;;;9.80;99.90;;;;;;5107088;28;20020;-45
2024/03/18 03:50:51;;;;;;;21.08;3.58;;;9.80;99.90;;;;;;5107074;28;20048;-45
2024/03/18 03:53:17;;;;;;;33.85;4.25;;;9.80;99.90;;;;;;5089345;28;20282;-45
2024/03/18 03:55:44;;;;;;;24.10;3.83;;;9.80;99.90;;;;;;5107233;28;20012;-44
2024/03/18 03:58:09;;;;;;;23.17;4.25;;;9.70;99.90;;;;;;5107257;28;20094;-45
2024/03/18 04:00:35;;;;;;;21.45;3.65;;;9.70;99.90;;;;;;5107142;28;20089;-45
2024/03/18 04:03:01;;;;;;;23.13;3.90;;;9.70;99.90;;;;;;5106920;28;20027;-45
2024/03/18 04:05:27;;;;;;;22.48;3.80;;;9.60;99.90;;;;;;5106952;28;20020;-44
2024/03/18 04:07:52;;;;;;;24.42;4.45;;;9.60;99.90;;;;;;5088793;28;20043;-43
2024/03/18 04:10:18;;;;;;;23.75;4.45;;;9.60;99.90;;;;;;5106665;28;20039;-44
2024/03/18 04:12:43;;;;;;;20.42;3.80;;;9.60;99.90;;;;;;5089095;28;20016;-47
2024/03/18 04:15:11;;;;;;;23.00;3.90;;;9.60;99.90;;;;;;5106716;28;20189;-44
2024/03/18 04:17:37;;;;;;;26.02;3.72;;;9.60;99.90;;;;;;5106815;28;20019;-43
2024/03/18 04:20:15;;;;;;;26.55;4.25;;;9.60;99.90;;;;;;5106805;28;20238;-46
2024/03/18 04:22:40;;;;;;;24.15;4.03;;;9.70;99.90;;;;;;5106375;28;20038;-44
2024/03/18 04:25:06;;;;;;;25.70;3.67;;;9.60;99.90;;;;;;5106185;28;20059;-43
2024/03/18 04:27:32;;;;;;;22.20;4.57;;;9.60;99.90;;;;;;5106517;28;20173;-44
2024/03/18 04:29:58;;;;;;;23.05;3.90;;;9.60;99.90;;;;;;5088606;28;20028;-46
2024/03/18 04:32:23;;;;;;;24.77;3.70;;;9.60;99.90;;;;;;5105683;28;20020;-43
2024/03/18 04:34:49;;;;;;;19.67;3.03;;;9.60;99.90;;;;;;5088376;28;20316;-45
2024/03/18 04:37:15;;;;;;;28.15;4.55;;;9.60;99.90;;;;;;5106490;28;20081;-43
2024/03/18 04:39:40;;;;;;;29.92;5.38;;;9.60;99.90;;;;;;5105936;28;20047;-44
2024/03/18 04:42:06;;;;;;;18.90;3.40;;;9.60;99.90;;;;;;5105863;28;20091;-43
2024/03/18 04:44:31;;;;;;;16.70;3.08;;;9.70;99.90;;;;;;5106363;28;20288;-44
2024/03/18 04:46:57;;;;;;;17.23;3.60;;;9.70;99.90;;;;;;5106230;28;20043;-45
2024/03/18 04:49:23;;;;;;;18.48;3.53;;;9.70;99.90;;;;;;5106254;28;20024;-44
2024/03/18 04:51:48;;;;;;;14.07;2.85;;;9.70;99.90;;;;;;5106330;28;20073;-45
2024/03/18 04:54:14;;;;;;;20.25;3.20;;;9.70;99.90;;;;;;5105888;28;20034;-44
2024/03/18 04:56:40;;;;;;;17.52;2.67;;;9.70;99.90;;;;;;5105966;28;20031;-46
2024/03/18 04:59:05;;;;;;;19.85;2.50;;;9.70;99.90;;;;;;5106088;28;20177;-45
2024/03/18 05:01:37;;;;;;;13.52;2.47;;;9.70;99.90;;;;;;5106117;28;20040;-46
2024/03/18 05:04:02;;;;;;;18.65;3.22;;;9.70;99.90;;;;;;5088317;28;20031;-46
2024/03/18 05:06:28;;;;;;;12.73;2.63;;;9.70;99.90;;;;;;5105802;28;20024;-45
2024/03/18 05:08:54;;;;;;;18.55;3.17;;;9.80;99.90;;;;;;5105567;28;20087;-46
2024/03/18 05:11:20;;;;;;;12.68;2.72;;;9.80;99.90;;;;;;5105443;28;20051;-44
2024/03/18 05:13:46;;;;;;;9.23;3.10;;;9.70;99.90;;;;;;5105961;28;20023;-44
2024/03/18 05:16:11;;;;;;;11.05;2.50;;;9.70;99.90;;;;;;5105501;28;20032;-44
2024/03/18 05:18:37;;;;;;;12.90;3.35;;;9.70;99.90;;;;;;5105827;28;20027;-44
2024/03/18 05:21:03;;;;;;;7.50;2.60;;;9.80;99.90;;;;;;5105712;28;20085;-45
2024/03/18 05:23:28;;;;;;;12.77;2.95;;;9.70;99.90;;;;;;5105702;28;20065;-44
2024/03/18 05:25:55;;;;;;;13.30;3.53;;;9.70;99.90;;;;;;5105303;28;20094;-44
2024/03/18 05:28:20;;;;;;;9.13;3.10;;;9.70;99.90;;;;;;5105555;28;20024;-44
2024/03/18 05:30:46;;;;;;;13.07;3.42;;;9.70;99.90;;;;;;5105508;28;20032;-44
2024/03/18 05:33:12;;;;;;;11.98;2.58;;;9.70;99.90;;;;;;5105455;28;20031;-43
2024/03/18 05:35:38;;;;;;;14.15;3.20;;;9.70;99.90;;;;;;5105705;28;20092;-47
2024/03/18 05:38:04;;;;;;;11.43;2.58;;;9.70;99.90;;;;;;5105681;28;20177;-45
2024/03/18 05:40:30;;;;;;;8.30;2.72;;;9.70;99.90;;;;;;5105377;28;20028;-43
2024/03/18 05:42:57;;;;;;;11.90;3.00;;;9.70;99.90;;;;;;5087948;28;20030;-46
2024/03/18 05:45:22;;;;;;;12.43;2.45;;;9.70;99.90;;;;;;5109243;28;20055;-44
2024/03/18 05:47:49;;;;;;;6.80;1.80;;;9.70;99.90;;;;;;5109601;28;20173;-44
2024/03/18 05:50:14;;;;;;;12.30;2.20;;;9.80;99.90;;;;;;5109505;28;20151;-44
2024/03/18 05:52:40;;;;;;;7.65;1.83;;;9.70;99.90;;;;;;5091659;28;20032;-44
2024/03/18 05:55:06;;;;;;;6.65;1.90;;;9.70;99.90;;;;;;5109397;28;20028;-45
2024/03/18 05:57:32;;;;;;;10.43;2.38;;;9.70;99.90;;;;;;5109484;28;20024;-46
2024/03/18 05:59:57;;;;;;;8.30;1.92;;;9.80;99.90;;;;;;5109450;28;20036;-47
2024/03/18 06:02:23;;;;;;;11.52;2.33;;;9.70;99.90;;;;;;5109471;28;20035;-44
2024/03/18 06:04:49;;;;;;;10.30;2.70;;;9.80;99.90;;;;;;5091323;28;20095;-46
2024/03/18 06:07:19;;;;;;;10.40;2.28;;;9.80;99.90;;;;;;5109105;28;20028;-46
2024/03/18 06:09:45;;;;;;;13.70;2.22;;;9.70;99.90;;;;;;5109351;28;20020;-45
2024/03/18 06:12:11;;;;;;;13.02;2.58;;;9.80;99.90;;;;;;5108790;28;20360;-46
2024/03/18 06:14:37;;;;;;;8.98;2.28;;;9.80;99.90;;;;;;5091025;28;20024;-48
2024/03/18 06:17:04;;;;;;;10.60;2.63;;;9.80;99.90;;;;;;5091305;28;20028;-45
2024/03/18 06:19:33;;;;;;;9.02;2.30;;;9.80;99.90;;;;;;5109057;28;20024;-45
2024/03/18 06:22:05;;;;;;;7.37;2.40;;;9.90;99.90;;;;;;5109071;28;20340;-48
2024/03/18 06:25:54;;;;;;;5.75;2.03;;;9.90;99.90;;;;;;5108645;28;20046;-45
2024/03/18 06:27:16;;;;;;;6.68;1.95;;;9.80;99.90;;;;;;5108705;28;20293;-48
2024/03/18 06:29:42;;;;;;;2.70;1.20;;;9.80;99.90;;;;;;5108981;28;20028;-47
2024/03/18 06:32:07;;;;;;;5.70;1.40;;;9.80;99.90;;;;;;5108310;28;20025;-47
2024/03/18 06:34:33;;;;;;;7.53;1.48;;;9.80;99.90;;;;;;5090874;28;20083;-47
2024/03/18 06:36:59;;;;;;;3.65;1.48;;;9.90;99.90;;;;;;5108436;28;20028;-48
2024/03/18 06:39:24;;;;;;;2.58;1.02;;;9.80;99.90;;;;;;5108743;28;20028;-47
2024/03/18 06:41:50;;;;;;;7.95;1.42;;;9.80;99.90;;;;;;5108531;28;20141;-45
2024/03/18 06:44:16;;;;;;;3.00;1.15;;;9.90;99.90;;;;;;5090376;28;20237;-45
2024/03/18 06:46:41;;;;;;;3.33;1.10;;;9.90;99.90;;;;;;5090289;28;20040;-47
2024/03/18 06:49:07;;;;;;;7.30;2.70;;;9.90;99.90;;;;;;5108227;28;20125;-44
2024/03/18 06:51:33;;;;;;;10.40;3.67;;;9.90;99.90;;;;;;5108267;28;20032;-46
2024/03/18 06:53:58;;;;;;;3.83;1.30;;;9.90;99.90;;;;;;5107773;28;20033;-45
2024/03/18 06:56:24;;;;;;;4.35;1.33;;;9.90;99.90;;;;;;5090171;28;20028;-47
2024/03/18 06:58:49;;;;;;;6.45;2.15;;;9.90;99.90;;;;;;5108041;28;20047;-46
2024/03/18 07:01:15;;;;;;;13.65;6.80;;;9.90;99.90;;;;;;5107950;28;20032;-46
2024/03/18 07:03:41;;;;;;;14.85;6.45;;;10.00;99.90;;;;;;5107782;28;20020;-47
2024/03/18 07:06:06;;;;;;;13.90;4.88;;;10.00;99.90;;;;;;5108145;28;20025;-44
2024/03/18 07:08:32;;;;;;;10.43;3.90;;;10.10;99.90;;;;;;5107974;28;20087;-45
2024/03/18 07:10:58;;;;;;;17.00;4.35;;;10.10;99.90;;;;;;5090138;28;20031;-47
2024/03/18 07:13:25;;;;;;;13.93;3.80;;;10.20;99.90;;;;;;5107919;28;20031;-45
2024/03/18 07:15:50;;;;;;;10.20;3.03;;;10.20;99.90;;;;;;5107946;28;20081;-48
2024/03/18 07:18:17;;;;;;;9.18;2.53;;;10.20;99.90;;;;;;5107553;28;20032;-46
2024/03/18 07:20:42;;;;;;;8.30;2.47;;;10.30;99.90;;;;;;5089992;28;20221;-47
2024/03/18 07:23:11;;;;;;;8.02;2.25;;;10.30;99.90;;;;;;5107688;28;20160;-45
2024/03/18 07:25:37;;;;;;;11.32;2.30;;;10.40;99.90;;;;;;5107224;28;20036;-45
2024/03/18 07:28:03;;;;;;;9.82;2.33;;;10.40;99.90;;;;;;5107480;28;20055;-45
2024/03/18 07:30:28;;;;;;;11.82;3.30;;;10.40;99.90;;;;;;5107412;28;20051;-45
2024/03/18 07:32:54;;;;;;;10.23;2.53;;;10.40;99.90;;;;;;5107314;28;20083;-45
2024/03/18 07:35:20;;;;;;;12.20;3.03;;;10.40;99.90;;;;;;5107429;28;20051;-47
2024/03/18 07:37:45;;;;;;;12.20;2.30;;;10.40;99.90;;;;;;5107363;28;20099;-48
2024/03/18 07:40:11;;;;;;;16.95;2.95;;;10.50;99.90;;;;;;5106994;28;20357;-46
2024/03/18 07:42:39;;;;;;;19.25;2.58;;;10.50;99.90;;;;;;5106930;28;20024;-48
2024/03/18 07:45:06;;;;;;;13.50;2.67;;;10.50;99.90;;;;;;5106905;28;20054;-47
2024/03/18 07:47:32;;;;;;;14.18;3.28;;;10.50;99.90;;;;;;5106882;28;20039;-45
2024/03/18 07:49:58;;;;;;;17.73;2.55;;;10.50;99.90;;;;;;5107039;28;20024;-46
2024/03/18 07:52:23;;;;;;;22.48;2.40;;;10.60;99.90;;;;;;5106518;28;20181;-45
2024/03/18 07:54:49;;;;;;;15.73;2.40;;;10.60;99.90;;;;;;5106964;28;20177;-46
2024/03/18 07:57:16;;;;;;;15.57;2.70;;;10.60;99.90;;;;;;5106973;28;20034;-45
2024/03/18 07:59:42;;;;;;;18.25;3.42;;;10.60;99.90;;;;;;5089279;28;20059;-48
2024/03/18 08:02:08;;;;;;;15.55;2.40;;;10.60;99.90;;;;;;5106892;28;20336;-47
2024/03/18 08:04:33;;;;;;;12.10;2.58;;;10.60;99.90;;;;;;5106487;28;20024;-46
2024/03/18 08:06:59;;;;;;;11.35;1.83;;;10.70;99.90;;;;;;5105548;28;20032;-45
2024/03/18 08:09:25;;;;;;;14.60;2.72;;;10.60;99.90;;;;;;5106600;28;20024;-47
2024/03/18 08:11:51;;;;;;;14.25;2.47;;;10.60;99.90;;;;;;5106707;28;20035;-46
2024/03/18 08:14:18;;;;;;;11.68;2.30;;;10.50;99.90;;;;;;5088542;28;20028;-46
2024/03/18 08:16:44;;;;;;;9.98;2.22;;;10.60;99.90;;;;;;5106533;28;20024;-45
2024/03/18 08:19:10;;;;;;;10.57;2.50;;;11.10;99.90;;;;;;5088411;28;20166;-45
2024/03/18 08:21:35;;;;;;;13.32;2.28;;;11.90;99.90;;;;;;5106651;28;20086;-46
2024/03/18 08:24:02;;;;;;;12.93;3.08;;;12.40;99.90;;;;;;5105964;28;20031;-47
2024/03/18 08:26:33;;;;;;;12.85;2.20;;;12.40;99.90;;;;;;5088064;28;20048;-47
2024/03/18 08:28:59;;;;;;;12.48;2.17;;;13.00;99.90;;;;;;5089293;28;20227;-48
2024/03/18 08:31:25;;;;;;;10.60;2.05;;;13.30;99.90;;;;;;5106265;28;20080;-46
2024/03/18 08:33:51;;;;;;;18.02;2.50;;;13.60;99.90;;;;;;5106095;28;20032;-44
2024/03/18 08:36:17;;;;;;;12.23;3.03;;;13.10;99.90;;;;;;5106056;28;20032;-46
2024/03/18 08:38:42;;;;;;;11.90;2.72;;;12.60;99.90;;;;;;5105937;28;20039;-46
2024/03/18 08:41:10;;;;;;;13.48;3.10;;;12.30;99.90;;;;;;5105797;28;20340;-48
2024/03/18 08:43:35;;;;;;;14.48;3.05;;;12.10;99.90;;;;;;5106190;28;20184;-48
2024/03/18 08:46:06;;;;;;;16.90;4.18;;;11.70;99.90;;;;;;5106120;28;20044;-44
2024/03/18 08:48:31;;;;;;;;;;;11.70;99.90;;;;;;5106338;28;20027;-44
2024/03/18 08:50:57;;;;;;;19.30;3.22;;;11.50;99.90;;;;;;5105516;28;20034;-44
2024/03/18 08:53:23;;;;;;;11.68;3.30;;;11.40;99.90;;;;;;5105698;28;20157;-45
2024/03/18 08:55:49;;;;;;;14.98;2.20;;;11.50;99.90;;;;;;5105331;28;20028;-44
2024/03/18 08:58:15;;;;;;;10.88;2.67;;;11.50;99.90;;;;;;5105390;28;20031;-44
2024/03/18 09:00:40;;;;;;;10.68;2.55;;;11.40;99.90;;;;;;5105780;28;20035;-46
2024/03/18 09:03:06;;;;;;;9.10;2.25;;;11.40;99.90;;;;;;5105578;28;20059;-43
2024/03/18 09:05:32;;;;;;;11.63;2.70;;;11.30;99.90;;;;;;5105578;28;20039;-45
2024/03/18 09:07:59;;;;;;;17.65;3.17;;;11.10;99.90;;;;;;5105668;28;20020;-45
2024/03/18 09:10:25;;;;;;;15.13;3.35;;;11.10;99.90;;;;;;5105644;28;20040;-46
2024/03/18 09:12:50;;;;;;;9.30;3.60;;;11.00;99.90;;;;;;5087909;28;20032;-47
2024/03/18 09:15:16;;;;;;;15.68;3.35;;;10.90;99.90;;;;;;5105592;28;20257;-47
2024/03/18 09:17:44;;;;;;;19.23;3.88;;;10.80;99.90;;;;;;5105391;28;20024;-47
2024/03/18 09:20:10;;;;;;;12.38;2.65;;;10.70;99.90;;;;;;5106063;28;20028;-45
2024/03/18 09:22:36;;;;;;;18.52;3.90;;;10.70;99.90;;;;;;5105383;28;20346;-44
2024/03/18 09:25:04;;;;;;;11.88;3.30;;;10.80;99.90;;;;;;5104983;28;20048;-45
2024/03/18 09:27:33;;;;;;;12.15;2.75;;;10.90;99.90;;;;;;5104863;28;20048;-44
2024/03/18 09:29:59;;;;;;;9.73;2.85;;;10.80;99.90;;;;;;5105325;28;20028;-43
2024/03/18 09:32:25;;;;;;;13.63;3.20;;;10.80;99.90;;;;;;5105158;28;20016;-44
2024/03/18 09:34:51;;;;;;;12.57;3.60;;;10.90;99.90;;;;;;5105218;28;20052;-43
2024/03/18 09:37:19;;;;;;;16.48;3.85;;;11.00;99.90;;;;;;5105194;28;20039;-47
2024/03/18 09:39:45;;;;;;;17.60;4.65;;;11.10;99.90;;;;;;5105609;28;20167;-45
2024/03/18 09:42:11;;;;;;;13.05;3.25;;;11.00;99.90;;;;;;5104897;28;20031;-44
2024/03/18 09:44:36;;;;;;;15.15;3.22;;;11.00;99.90;;;;;;5104566;28;20095;-44
2024/03/18 09:47:03;;;;;;;16.98;3.53;;;10.90;99.90;;;;;;5104751;28;20095;-43
2024/03/18 09:49:29;;;;;;;12.00;3.28;;;10.80;99.90;;;;;;5087566;28;20146;-45
2024/03/18 09:51:55;;;;;;;14.27;3.03;;;10.90;99.90;;;;;;5087291;28;20015;-44
2024/03/18 09:54:20;;;;;;;14.65;3.75;;;10.80;99.90;;;;;;5087218;28;20095;-43
2024/03/18 09:56:59;;;;;;;22.23;4.50;;;10.90;99.90;;;;;;5105251;28;20024;-48
2024/03/18 09:59:24;;;;;;;13.75;3.10;;;10.80;99.90;;;;;;5087205;28;20224;-44
2024/03/18 10:01:50;;;;;;;13.90;4.03;;;10.90;99.90;;;;;;5105147;28;20062;-44
2024/03/18 10:04:16;;;;;;;13.70;3.90;;;10.90;99.90;;;;;;5087201;28;20033;-46
2024/03/18 10:06:41;;;;;;;12.10;3.38;;;10.90;99.90;;;;;;5104691;28;20031;-45
2024/03/18 10:09:07;;;;;;;13.70;2.88;;;11.00;99.90;;;;;;5104794;28;20046;-43
2024/03/18 10:11:33;;;;;;;16.75;3.97;;;11.10;99.90;;;;;;5087404;28;20066;-43
2024/03/18 10:13:59;;;;;;;16.05;2.88;;;11.10;99.90;;;;;;5086596;28;20032;-43
2024/03/18 10:16:25;;;;;;;20.23;4.22;;;11.00;99.90;;;;;;5104321;28;20027;-44
2024/03/18 10:18:51;;;;;;;17.95;3.10;;;10.90;99.90;;;;;;5104602;28;20087;-45
2024/03/18 10:21:16;;;;;;;18.10;3.97;;;10.80;99.90;;;;;;5104909;28;20098;-44
2024/03/18 10:23:53;;;;;;;21.50;4.40;;;10.90;99.90;;;;;;5104868;28;20174;-44
2024/03/18 10:26:19;;;;;;;22.58;4.20;;;11.00;99.90;;;;;;5087209;28;20197;-44
2024/03/18 10:28:48;;;;;;;16.88;5.53;;;12.30;99.90;;;;;;5087035;28;20109;-43
2024/03/18 10:31:18;;;;;;;15.27;3.92;;;13.60;99.90;;;;;;5108522;28;20012;-44
2024/03/18 10:33:47;;;;;;;13.43;3.20;;;13.30;99.90;;;;;;5108744;28;20046;-43
2024/03/18 10:36:24;;;;;;;18.63;3.10;;;13.00;99.90;;;;;;5108481;28;20020;-44
2024/03/18 10:39:15;;;;;;;20.67;3.70;;;12.70;99.90;;;;;;5090677;28;20020;-46
2024/03/18 10:41:41;;;;;;;14.35;2.58;;;12.40;99.90;;;;;;5108162;28;20077;-45
2024/03/18 10:44:17;;;;;;;15.45;3.45;;;12.20;99.90;;;;;;5090172;28;20016;-46
2024/03/18 10:46:44;;;;;;;16.40;2.70;;;12.10;99.90;;;;;;5089617;28;20072;-44
2024/03/18 10:49:17;;;;;;;16.52;2.88;;;12.60;99.90;;;;;;5089577;28;20056;-44
2024/03/18 10:51:46;;;;;;;14.45;2.97;;;12.60;99.90;;;;;;5090824;28;20028;-45
2024/03/18 10:54:16;;;;;;;9.93;2.35;;;12.80;99.90;;;;;;5090199;28;20032;-45
2024/03/18 10:56:45;;;;;;;11.80;2.42;;;13.00;99.90;;;;;;5107496;28;20363;-48
2024/03/18 10:59:18;;;;;;;15.73;2.70;;;13.10;99.90;;;;;;5090154;28;20032;-43
2024/03/18 11:01:43;;;;;;;17.63;3.30;;;13.00;99.90;;;;;;5089919;28;20028;-44
2024/03/18 11:04:22;;;;;;;15.75;2.45;;;14.50;99.90;;;;;;5089980;28;20034;-46
2024/03/18 11:06:49;;;;;;;12.18;2.33;;;16.00;99.90;;;;;;5107588;28;20099;-44
2024/03/18 11:09:17;;;;;;;16.23;2.90;;;16.30;99.90;;;;;;5107180;28;20024;-48
2024/03/18 11:11:42;;;;;;;11.82;2.50;;;15.20;99.90;;;;;;5107838;28;20073;-45
2024/03/18 11:14:11;;;;;;;19.85;4.03;;;14.20;99.90;;;;;;5089742;28;20048;-49
2024/03/18 11:16:44;;;;;;;19.03;3.47;;;13.90;99.90;;;;;;5107305;28;20028;-44
2024/03/18 11:19:16;;;;;;;28.38;11.60;;;14.30;99.90;;;;;;5106933;28;20102;-43
2024/03/18 11:21:42;;;;;;;14.68;5.50;;;15.10;99.90;;;;;;5107139;28;20031;-47
2024/03/18 11:24:08;;;;;;;18.00;5.07;;;15.80;99.90;;;;;;5107669;28;20032;-46
2024/03/18 11:26:40;;;;;;;14.18;2.70;;;15.90;99.90;;;;;;5107002;28;20044;-47
2024/03/18 11:29:10;;;;;;;15.18;2.45;;;15.50;99.90;;;;;;5089597;28;20281;-48
2024/03/18 11:31:36;;;;;;;11.57;3.08;;;15.50;99.90;;;;;;5107478;28;20249;-47
2024/03/18 11:34:06;;;;;;;9.27;2.42;;;16.00;99.90;;;;;;5107302;28;20012;-47
2024/03/18 11:36:34;;;;;;;;;;;16.50;99.90;;;;;;5107313;28;20107;-46
2024/03/18 11:39:00;;;;;;;14.88;2.80;;;16.10;99.90;;;;;;5107125;28;19957;-47
2024/03/18 11:41:26;;;;;;;18.55;4.97;;;16.50;99.90;;;;;;5106878;28;20020;-47
2024/03/18 11:43:51;;;;;;;22.95;5.68;;;16.60;99.90;;;;;;5088944;28;20157;-45
2024/03/18 11:46:17;;;;;;;94.85;53.60;;;16.80;99.90;;;;;;5106149;28;20032;-46
2024/03/18 11:48:43;;;;;;;13.27;4.18;;;17.70;99.90;;;;;;5106701;28;20027;-47
2024/03/18 11:51:09;;;;;;;13.50;3.50;;;18.30;99.90;;;;;;5072132;28;20028;-48
2024/03/18 11:53:35;;;;;;;15.30;3.92;;;17.10;99.90;;;;;;5088639;28;20331;-46
2024/03/18 11:56:00;;;;;;;10.85;2.17;;;16.40;99.90;;;;;;5106331;28;20020;-47
2024/03/18 11:58:26;;;;;;;12.75;2.25;;;17.40;99.90;;;;;;5106580;28;20282;-47
2024/03/18 12:00:52;;;;;;;16.67;3.08;;;18.00;99.90;;;;;;5106513;28;20035;-47
2024/03/18 12:03:17;;;;;;;10.38;2.50;;;17.20;99.90;;;;;;5088766;28;20019;-47
2024/03/18 12:05:44;;;;;;;25.67;3.28;;;16.20;99.90;;;;;;5088616;28;20126;-47
2024/03/18 12:08:20;;;;;;;11.57;2.55;;;16.50;99.90;;;;;;5107070;28;20150;-49
2024/03/18 12:10:56;;;;;;;14.48;2.80;;;16.00;99.90;;;;;;5106052;28;20105;-47
2024/03/18 12:13:25;;;;;;;20.42;3.13;;;16.50;99.90;;;;;;5089039;28;20028;-47
2024/03/18 12:15:51;;;;;;;9.30;2.00;;;15.80;99.90;;;;;;5088491;28;20073;-46
2024/03/18 12:18:17;;;;;;;15.50;2.95;;;15.40;99.90;;;;;;5105591;28;20035;-47
2024/03/18 12:20:43;;;;;;;11.85;2.10;;;15.60;99.90;;;;;;5105808;28;20232;-47
2024/03/18 12:23:16;;;;;;;14.55;3.08;;;16.30;99.90;;;;;;5105563;28;20059;-46
2024/03/18 12:28:36;;;;;;;17.10;3.58;;;15.90;99.90;;;;;;5105615;28;20162;-48
2024/03/18 12:31:06;;;;;;;11.93;2.53;;;15.70;99.90;;;;;;5089316;28;20052;-46
2024/03/18 12:33:32;;;;;;;22.00;4.65;;;15.50;99.90;;;;;;5105652;28;20050;-47
2024/03/18 12:35:58;;;;;;;11.00;1.95;;;15.80;99.90;;;;;;5087949;28;20031;-46
2024/03/18 12:38:34;;;;;;;13.45;2.33;;;15.70;99.90;;;;;;5105621;28;20027;-47
2024/03/18 12:41:00;;;;;;;10.23;2.85;;;15.60;99.90;;;;;;5088717;28;20024;-48
2024/03/18 12:43:26;;;;;;;13.88;2.60;;;15.40;99.90;;;;;;5105620;28;20215;-45